Aquarius Voyager — C6UC3 — position and weather

sailwx.info

Track history (hours):
 
Tides and Currents Weather Stations Pressure Air Temp Water Temp Dewpoint Dewpoint Depression Visibility Wind Speed Wind Dir Waves Ship Positions

Aquarius Voyager

Last reported at 2017-Nov-25 12:08 UTC. Time now 2017-Dec-13 03:25 UTC.
Position N 29°09' W 122°58'.
Warning: this ship's position is 17 days out of date.

Type: Tanker. MMSI: 311813000.

Date/timePositionNaut miles runAvg speedWind from/ knotsBaromVisibWave heightAir tempDewpointWater temp
2017-Nov-25 12:08N 29°09' W 122°58'912.4
2017-Nov-25 11:23N 29°13' W 122°49'512.5
2017-Nov-25 11:00N 29°15' W 122°44'612.6
2017-Nov-25 10:30N 29°18' W 122°37'812.5
2017-Nov-25 09:50N 29°22' W 122°29'512.2
2017-Nov-25 09:23N 29°24' W 122°23'512.2
2017-Nov-25 09:00N 29°27' W 122°18'612.1
2017-Nov-25 08:30N 29°29' W 122°12'612.2
2017-Nov-25 08:01N 29°32' W 122°06'612.1
2017-Nov-25 07:30N 29°35' W 121°60'612.2
2017-Nov-25 07:00N 29°38' W 121°54'712.3
2017-Nov-25 06:25N 29°41' W 121°46'512.2
2017-Nov-25 06:00N 29°43' W 121°41'612.2
2017-Nov-25 05:30N 29°46' W 121°34'912.5
2017-Nov-25 04:45N 29°50' W 121°25'412.5
2017-Nov-25 04:24N 29°51' W 121°20'512.6
2017-Nov-25 04:00N 29°53' W 121°15'2512.4
2017-Nov-25 02:00N 30°04' W 120°49'812.6
2017-Nov-25 01:23N 30°08' W 120°41'512.6
2017-Nov-25 01:00N 30°10' W 120°36'612.4
2017-Nov-25 00:29N 30°12' W 120°29'612.4
2017-Nov-25 00:00N 30°15' W 120°23'612.6
2017-Nov-24 23:30N 30°17' W 120°16'612.5
2017-Nov-24 23:00N 30°20' W 120°09'612.5
2017-Nov-24 22:30N 30°22' W 120°03'612.2
2017-Nov-24 22:00N 30°25' W 119°57'612.1
2017-Nov-24 21:30N 30°27' W 119°50'712.8
2017-Nov-24 21:00N 30°30' W 119°43'713.9
2017-Nov-24 20:30N 30°33' W 119°36'714.1
2017-Nov-24 20:00N 30°36' W 119°29'713.9
2017-Nov-24 19:30N 30°39' W 119°21'714.0
2017-Nov-24 19:00N 30°42' W 119°14'714.0
2017-Nov-24 18:30N 30°45' W 119°07'713.9
2017-Nov-24 18:00N 30°48' W 118°59'713.9
2017-Nov-24 17:31N 30°51' W 118°52'714.1
2017-Nov-24 17:00N 30°54' W 118°45'914.4
2017-Nov-24 16:24N 30°58' W 118°36'614.4
2017-Nov-24 16:00N 31°00' W 118°30'714.8
2017-Nov-24 15:30N 31°06' W 118°24'714.7
2017-Nov-24 15:00N 31°12' W 118°19'714.5
2017-Nov-24 14:30N 31°18' W 118°14'714.3
2017-Nov-24 14:00N 31°23' W 118°08'714.5
2017-Nov-24 13:30N 31°29' W 118°03'714.1
2017-Nov-24 13:00N 31°34' W 117°58'714.1
2017-Nov-24 12:31N 31°40' W 117°53'714.2
2017-Nov-24 12:00N 31°45' W 117°48'714.1
2017-Nov-24 11:31N 31°51' W 117°42'713.5
2017-Nov-24 11:00N 31°57' W 117°38'714.5
2017-Nov-24 10:30N 32°04' W 117°39'714.3
2017-Nov-24 10:00N 32°11' W 117°40'714.1
2017-Nov-24 09:31N 32°18' W 117°40'713.9
2017-Nov-24 09:00N 32°25' W 117°38'714.5
2017-Nov-24 08:30N 32°32' W 117°38'714.0
2017-Nov-24 08:00N 32°39' W 117°40'714.5
2017-Nov-24 07:31N 32°46' W 117°43'714.6
2017-Nov-24 07:00N 32°52' W 117°47'714.8
2017-Nov-24 06:31N 32°59' W 117°50'714.7
2017-Nov-24 06:00N 33°07' W 117°50'2 3.8
2017-Nov-24 05:30N 33°08' W 117°51'1 1.1
2017-Nov-24 05:00N 33°08' W 117°51'1 1.9
2017-Nov-24 04:30N 33°07' W 117°51'1 1.8
2017-Nov-24 04:00N 33°06' W 117°51'2 3.7
2017-Nov-24 03:30N 33°05' W 117°50'1 1.4
2017-Nov-24 03:00N 33°04' W 117°49'1 1.6
2017-Nov-24 02:30N 33°04' W 117°49'0 0.4
2017-Nov-24 02:00N 33°03' W 117°48'0 0.4
2017-Nov-24 01:30N 33°03' W 117°49'0 0.3
2017-Nov-24 01:00N 33°03' W 117°49'0 0.4
2017-Nov-24 00:30N 33°03' W 117°49'0 0.6
2017-Nov-24 00:00N 33°03' W 117°48'1 1.5
2017-Nov-23 23:30N 33°02' W 117°48'1 1.8
2017-Nov-23 23:00N 33°01' W 117°48'1 1.1
2017-Nov-23 22:30N 33°00' W 117°48'1 1.3
2017-Nov-23 22:00N 32°60' W 117°48'1 1.8
2017-Nov-23 21:30N 32°59' W 117°48'1 1.1
2017-Nov-23 21:00N 32°58' W 117°48'0 0.6
2017-Nov-23 20:30N 32°58' W 117°48'0 0.8
2017-Nov-23 20:00N 32°58' W 117°48'1 1.2
2017-Nov-23 19:30N 32°57' W 117°48'1 1.4
2017-Nov-23 19:00N 32°56' W 117°48'1 1.1
2017-Nov-23 18:30N 32°56' W 117°47'1 1.0
2017-Nov-23 18:00N 32°56' W 117°47'1 1.1
2017-Nov-23 17:30N 32°55' W 117°47'1 1.1
2017-Nov-23 17:00N 32°55' W 117°46'1 1.1
2017-Nov-23 16:30N 32°54' W 117°46'0 0.9
2017-Nov-23 16:00N 32°54' W 117°46'0 0.9
2017-Nov-23 15:30N 32°54' W 117°45'1 1.2
2017-Nov-23 15:00N 32°53' W 117°45'1 1.3
2017-Nov-23 14:30N 32°53' W 117°44'1 1.3
2017-Nov-23 14:00N 32°53' W 117°45'1 1.1
2017-Nov-23 13:30N 32°53' W 117°46'1 1.1
2017-Nov-23 13:00N 32°53' W 117°46'0 0.8
2017-Nov-23 12:30N 32°52' W 117°47'0 0.9
2017-Nov-23 12:00N 32°52' W 117°47'1 1.1
2017-Nov-23 11:30N 32°53' W 117°48'1 1.5
2017-Nov-23 11:00N 32°53' W 117°48'1 1.4
2017-Nov-23 10:30N 32°54' W 117°49'1 1.2
2017-Nov-23 10:01N 32°54' W 117°49'0 0.9
2017-Nov-23 09:30N 32°55' W 117°50'0 0.7
2017-Nov-23 09:00N 32°55' W 117°50'0 0.8
2017-Nov-23 08:30N 32°55' W 117°50'0 0.8
2017-Nov-23 08:00N 32°56' W 117°50'0 0.9
2017-Nov-23 07:30N 32°56' W 117°50'0 0.8
2017-Nov-23 07:00N 32°57' W 117°50'1 1.2
2017-Nov-23 06:30N 32°57' W 117°50'1 2.0
2017-Nov-23 06:00N 32°58' W 117°51'2 3.2
2017-Nov-23 05:30N 32°60' W 117°51'2 4.7
2017-Nov-23 05:00N 33°02' W 117°52'2 4.6
2017-Nov-23 04:30N 33°04' W 117°54'2 4.6
2017-Nov-23 04:00N 33°06' W 117°55'2 4.7
2017-Nov-23 03:30N 33°08' W 117°57'1 2.0
2017-Nov-23 03:00N 33°09' W 117°57'0 0.8
2017-Nov-23 02:30N 33°09' W 117°57'0 0.3
2017-Nov-23 02:00N 33°09' W 117°57'1 2.8
2017-Nov-23 01:30N 33°08' W 117°56'4 7.3
2017-Nov-23 01:00N 33°05' W 117°53'5 9.0
2017-Nov-23 00:30N 33°02' W 117°49'5 9.0
2017-Nov-23 00:00N 32°59' W 117°45'1 2.9
2017-Nov-22 23:30N 32°59' W 117°43'0 0.4
2017-Nov-22 23:00N 32°59' W 117°43'0 0.5
2017-Nov-22 22:30N 32°60' W 117°43'0 0.8
2017-Nov-22 22:00N 32°60' W 117°43'0 0.7
2017-Nov-22 21:30N 33°00' W 117°44'0 0.6
2017-Nov-22 21:00N 33°00' W 117°44'0 0.6
2017-Nov-22 20:30N 33°01' W 117°44'0 0.5
2017-Nov-22 20:00N 33°01' W 117°44'0 0.6
2017-Nov-22 19:30N 33°01' W 117°45'  
2017-Nov-20 00:30N 33°03' W 117°50'0 0.8
2017-Nov-20 00:01N 33°04' W 117°50'0 0.6
2017-Nov-19 23:30N 33°04' W 117°51'0 0.5
2017-Nov-19 23:01N 33°04' W 117°51'0 0.5
2017-Nov-19 22:30N 33°04' W 117°51'0 0.5
2017-Nov-19 22:00N 33°04' W 117°51'0 0.5
2017-Nov-19 21:30N 33°04' W 117°52'0 0.5
2017-Nov-19 21:00N 33°04' W 117°52'0 0.4
2017-Nov-19 20:31N 33°04' W 117°52'0 0.4
2017-Nov-19 20:00N 33°04' W 117°52'0 0.5
2017-Nov-19 19:31N 33°04' W 117°53'0 0.6
2017-Nov-19 19:00N 33°04' W 117°53'0 0.4
2017-Nov-19 18:31N 33°04' W 117°53'0 0.5
2017-Nov-19 18:00N 33°04' W 117°54'0 0.4
2017-Nov-19 17:30N 33°04' W 117°54'0 0.3
2017-Nov-19 17:00N 33°04' W 117°54'0 0.2
2017-Nov-19 16:31N 33°04' W 117°54'0 0.2
2017-Nov-19 16:00N 33°03' W 117°54'0 0.2
2017-Nov-19 15:30N 33°03' W 117°54'0 0.3
2017-Nov-19 15:00N 33°03' W 117°54'0 0.3
2017-Nov-19 14:31N 33°03' W 117°54'0 0.2
2017-Nov-19 14:01N 33°03' W 117°54'0 0.2
2017-Nov-19 13:31N 33°03' W 117°54'0 0.1
2017-Nov-19 13:01N 33°03' W 117°54'0 0.2
2017-Nov-19 12:31N 33°03' W 117°54'0 0.1
2017-Nov-19 12:00N 33°03' W 117°54'0 0.2
2017-Nov-19 11:30N 33°03' W 117°54'0 0.3
2017-Nov-19 11:00N 33°04' W 117°54'0 0.4
2017-Nov-19 10:30N 33°04' W 117°54'0 0.2
2017-Nov-19 10:00N 33°04' W 117°54'0 0.3
2017-Nov-19 09:30N 33°04' W 117°55'0 0.2
2017-Nov-19 09:00N 33°04' W 117°55'0 0.2
2017-Nov-19 08:30N 33°04' W 117°55'0 0.2
2017-Nov-19 08:00N 33°04' W 117°55'0 0.2
2017-Nov-19 07:30N 33°04' W 117°55'0 0.3
2017-Nov-19 07:00N 33°04' W 117°55'0 0.3
2017-Nov-19 06:30N 33°04' W 117°55'0 0.2
2017-Nov-19 06:00N 33°04' W 117°55'0 0.3
2017-Nov-19 05:30N 33°04' W 117°55'0 0.2
2017-Nov-19 05:00N 33°04' W 117°56'0 0.1
2017-Nov-19 04:30N 33°04' W 117°56'0 0.1
2017-Nov-19 04:00N 33°04' W 117°56'0 0.1
2017-Nov-19 03:30N 33°04' W 117°56'0 0.4
2017-Nov-19 03:01N 33°04' W 117°55'1 2.3
2017-Nov-19 02:30N 33°04' W 117°54'2 3.7
2017-Nov-19 02:01N 33°03' W 117°52'1 1.3
2017-Nov-19 01:31N 33°03' W 117°51'0 0.5
2017-Nov-19 01:00N 33°03' W 117°51'0 0.8
2017-Nov-19 00:30N 33°02' W 117°51'1 1.9
2017-Nov-19 00:00N 33°02' W 117°51'1 2.6
2017-Nov-18 23:30N 33°00' W 117°50'1 2.0
2017-Nov-18 23:00N 32°60' W 117°50'0 0.9
2017-Nov-18 22:31N 32°59' W 117°49'0 0.6
2017-Nov-18 21:58N 32°59' W 117°49'0 0.3
2017-Nov-18 21:30N 32°59' W 117°49'0 0.8
2017-Nov-18 21:00N 32°58' W 117°49'1 1.0
2017-Nov-18 20:30N 32°58' W 117°49'0 0.7
2017-Nov-18 20:00N 32°58' W 117°48'0 0.6
2017-Nov-18 19:30N 32°57' W 117°48'0 0.7
2017-Nov-18 19:00N 32°57' W 117°48'0 0.9
2017-Nov-18 18:30N 32°57' W 117°48'1 1.2
2017-Nov-18 18:00N 32°56' W 117°48'1 1.1
2017-Nov-18 17:30N 32°55' W 117°48'0 0.6
2017-Nov-18 16:56N 32°55' W 117°48'0 0.7
2017-Nov-18 16:31N 32°55' W 117°48'0 0.6
2017-Nov-18 16:00N 32°56' W 117°48'0 0.6
2017-Nov-18 15:30N 32°56' W 117°48'0 0.5
2017-Nov-18 15:00N 32°56' W 117°48'0 0.6
2017-Nov-18 14:30N 32°56' W 117°49'1 1.3
2017-Nov-18 14:00N 32°57' W 117°49'1 1.2
2017-Nov-18 13:30N 32°57' W 117°49'1 1.1
2017-Nov-18 13:01N 32°58' W 117°49'1 1.1
2017-Nov-18 12:30N 32°58' W 117°50'0 0.8
2017-Nov-18 12:00N 32°59' W 117°50'0 0.8
2017-Nov-18 11:31N 32°59' W 117°50'0 0.9
2017-Nov-18 11:01N 32°60' W 117°50'0 0.8
2017-Nov-18 10:30N 33°00' W 117°50'0 0.8
2017-Nov-18 09:59N 33°01' W 117°50'0 0.8
2017-Nov-18 09:31N 33°01' W 117°50'0 0.7
2017-Nov-18 09:00N 33°01' W 117°51'1 1.4
2017-Nov-18 08:31N 33°02' W 117°51'1 2.9
2017-Nov-18 08:01N 33°03' W 117°52'2 3.9
2017-Nov-18 07:31N 33°05' W 117°53'2 4.3
2017-Nov-18 07:01N 33°06' W 117°55'2 4.6
2017-Nov-18 06:30N 33°08' W 117°56'1 2.3
2017-Nov-18 06:01N 33°09' W 117°57'2 3.9
2017-Nov-18 05:31N 33°09' W 117°54'0 0.5
2017-Nov-18 05:00N 33°09' W 117°55'0 0.2
2017-Nov-18 04:27N 33°09' W 117°55'0 0.3
2017-Nov-18 04:00N 33°09' W 117°55'0 0.2
2017-Nov-18 03:30N 33°09' W 117°55'0 0.3
2017-Nov-18 03:00N 33°09' W 117°55'2 5.0
2017-Nov-18 02:30N 33°06' W 117°54'510.3
2017-Nov-18 02:00N 33°01' W 117°53'611.1
2017-Nov-18 01:30N 32°56' W 117°51'611.0
2017-Nov-18 01:00N 32°50' W 117°50'611.1
2017-Nov-18 00:30N 32°45' W 117°48'511.0
2017-Nov-18 00:01N 32°40' W 117°47'510.8
2017-Nov-17 23:30N 32°34' W 117°46'611.1
2017-Nov-17 23:00N 32°29' W 117°45'611.0
2017-Nov-17 22:30N 32°23' W 117°45'611.0
2017-Nov-17 21:56N 32°17' W 117°44'511.0
2017-Nov-17 21:27N 32°12' W 117°43'510.3
2017-Nov-17 21:00N 32°07' W 117°42'3 5.1
2017-Nov-17 20:30N 32°05' W 117°42'1 0.4
2017-Nov-17 18:21N 32°05' W 117°43'0 0.6
2017-Nov-17 18:00N 32°05' W 117°43'0 0.4
2017-Nov-17 17:30N 32°05' W 117°44'1 0.6
2017-Nov-17 16:02N 32°04' W 117°45'0 0.2
2017-Nov-17 16:00N 32°04' W 117°45'1 0.7
2017-Nov-17 14:16N 32°04' W 117°46'0 0.9
2017-Nov-17 14:00N 32°04' W 117°46'0 0.5
2017-Nov-17 13:31N 32°04' W 117°46'0 0.6
2017-Nov-17 13:00N 32°04' W 117°47'0 0.6
2017-Nov-17 12:31N 32°03' W 117°47'0 0.5
2017-Nov-17 12:01N 32°03' W 117°47'0 0.5
2017-Nov-17 11:30N 32°03' W 117°47'0 0.4
2017-Nov-17 11:01N 32°03' W 117°47'0 0.5
2017-Nov-17 10:30N 32°03' W 117°48'0 0.5
2017-Nov-17 10:00N 32°03' W 117°48'0 0.5
2017-Nov-17 09:13N 32°02' W 117°48'0 0.6
2017-Nov-17 09:00N 32°02' W 117°48'0 0.4
2017-Nov-17 08:30N 32°02' W 117°49'0 0.4
2017-Nov-17 08:01N 32°02' W 117°49'0 0.4
2017-Nov-17 07:30N 32°02' W 117°49'0 0.5
2017-Nov-17 07:01N 32°02' W 117°49'0 0.5
2017-Nov-17 06:30N 32°02' W 117°50'0 0.5
2017-Nov-17 06:00N 32°02' W 117°50'0 0.5
2017-Nov-17 05:30N 32°02' W 117°50'0 0.5
2017-Nov-17 05:01N 32°02' W 117°50'0 0.6
2017-Nov-17 04:31N 32°02' W 117°51'0 0.6
2017-Nov-17 03:58N 32°01' W 117°51'0 0.7
2017-Nov-17 03:31N 32°02' W 117°52'0 0.8
2017-Nov-17 03:01N 32°02' W 117°52'0 0.8
2017-Nov-17 02:31N 32°02' W 117°53'0 0.9
2017-Nov-17 02:01N 32°01' W 117°53'0 0.9
2017-Nov-17 01:31N 32°01' W 117°54'0 0.9
2017-Nov-17 01:00N 32°01' W 117°54'0 1.0
2017-Nov-17 00:31N 32°01' W 117°55'0 1.0
2017-Nov-17 00:00N 32°01' W 117°55'1 1.0
2017-Nov-16 23:30N 32°01' W 117°56'0 0.7
2017-Nov-16 23:01N 32°01' W 117°56'0 0.6
2017-Nov-16 22:31N 32°01' W 117°57'0 0.7
2017-Nov-16 22:00N 32°01' W 117°57'0 0.6
2017-Nov-16 21:30N 32°00' W 117°57'0 0.4
2017-Nov-16 21:00N 32°00' W 117°57'0 0.4
2017-Nov-16 20:30N 32°00' W 117°57'3 5.0
2017-Nov-16 20:01N 31°59' W 117°60'611.6
2017-Nov-16 19:31N 31°54' W 118°04'611.6
2017-Nov-16 19:00N 31°50' W 118°09'611.3
2017-Nov-16 18:31N 31°45' W 118°11'611.3
2017-Nov-16 18:01N 31°39' W 118°14'611.3
2017-Nov-16 17:31N 31°34' W 118°16'611.2
2017-Nov-16 17:00N 31°29' W 118°19'611.2
2017-Nov-16 16:31N 31°24' W 118°21'511.0
2017-Nov-16 16:00N 31°19' W 118°23'610.9
2017-Nov-16 15:30N 31°14' W 118°26'510.9
2017-Nov-16 15:00N 31°09' W 118°28'5 9.8
2017-Nov-16 14:30N 31°05' W 118°32'510.9
2017-Nov-16 14:00N 31°03' W 118°38'510.8
2017-Nov-16 13:30N 31°02' W 118°44'510.8
2017-Nov-16 13:00N 31°01' W 118°50'610.7
2017-Nov-16 12:28N 30°59' W 118°57'610.9
2017-Nov-16 11:58N 30°58' W 119°03'511.1
2017-Nov-16 11:31N 30°56' W 119°09'1911.1
2017-Nov-16 09:49N 30°51' W 119°30'311.1
2017-Nov-16 09:31N 30°51' W 119°34'611.2
2017-Nov-16 09:00N 30°49' W 119°40'611.4
2017-Nov-16 08:31N 30°48' W 119°46'611.4
2017-Nov-16 08:01N 30°46' W 119°53'611.5
2017-Nov-16 07:30N 30°45' W 119°59'711.6
2017-Nov-16 06:55N 30°43' W 120°07'511.5
2017-Nov-16 06:31N 30°42' W 120°12'611.4
2017-Nov-16 06:01N 30°40' W 120°19'611.2
2017-Nov-16 05:31N 30°39' W 120°25'611.1
2017-Nov-16 05:01N 30°38' W 120°31'611.2
2017-Nov-16 04:31N 30°36' W 120°38'611.2
2017-Nov-16 04:00N 30°35' W 120°44'611.4
2017-Nov-16 03:30N 30°33' W 120°50'1211.2
2017-Nov-16 02:24N 30°30' W 121°04'511.1
2017-Nov-16 01:58N 30°29' W 121°10'510.9
2017-Nov-16 01:30N 30°28' W 121°15'911.2
2017-Nov-16 00:44N 30°26' W 121°25'811.4
2017-Nov-16 00:04N 30°24' W 121°33'111.5
2017-Nov-16 00:00N 30°24' W 121°34'611.2
2017-Nov-15 23:31N 30°22' W 121°40'610.9
2017-Nov-15 23:00N 30°21' W 121°47'510.4
2017-Nov-15 22:30N 30°21' W 121°53'611.0
2017-Nov-15 22:00N 30°22' W 121°59'611.1
2017-Nov-15 21:30N 30°24' W 122°05'611.0
2017-Nov-15 20:59N 30°26' W 122°11'611.2
2017-Nov-15 20:30N 30°27' W 122°17'1011.0
2017-Nov-15 19:33N 30°30' W 122°29'211.4
2017-Nov-15 19:23N 30°31' W 122°31'411.3
2017-Nov-15 19:00N 30°32' W 122°36'611.3
2017-Nov-15 18:30N 30°34' W 122°42'611.2
2017-Nov-15 18:00N 30°35' W 122°48'611.4
2017-Nov-15 17:30N 30°37' W 122°55'611.5
2017-Nov-15 17:00N 30°39' W 123°01'611.4
2017-Nov-15 16:30N 30°40' W 123°07'611.3
2017-Nov-15 16:00N 30°42' W 123°14'611.2
2017-Nov-15 15:30N 30°44' W 123°20'1611.1
2017-Nov-15 14:06N 30°48' W 123°37'110.8
2017-Nov-15 14:00N 30°49' W 123°38'1511.0
2017-Nov-15 12:39N 30°53' W 123°55'310.8
2017-Nov-15 12:21N 30°54' W 123°58'  
Track history (hours):
 
Tides and Currents Weather Stations Pressure Air Temp Water Temp Dewpoint Dewpoint Depression Visibility Wind Speed Wind Dir Waves Ship Positions

Aquarius Voyager

Last reported at 2017-Nov-25 12:08 UTC. Time now 2017-Dec-13 03:25 UTC.
Position N 29°09' W 122°58'.
Warning: this ship's position is 17 days out of date.

Type: Tanker. MMSI: 311813000.

Date/timePositionNaut miles runAvg speedWind from/ knotsBaromVisibWave heightAir tempDewpointWater temp
2017-Nov-25 12:08N 29°09' W 122°58'912.4
2017-Nov-25 11:23N 29°13' W 122°49'512.5
2017-Nov-25 11:00N 29°15' W 122°44'612.6
2017-Nov-25 10:30N 29°18' W 122°37'812.5
2017-Nov-25 09:50N 29°22' W 122°29'512.2
2017-Nov-25 09:23N 29°24' W 122°23'512.2
2017-Nov-25 09:00N 29°27' W 122°18'612.1
2017-Nov-25 08:30N 29°29' W 122°12'612.2
2017-Nov-25 08:01N 29°32' W 122°06'612.1
2017-Nov-25 07:30N 29°35' W 121°60'612.2
2017-Nov-25 07:00N 29°38' W 121°54'712.3
2017-Nov-25 06:25N 29°41' W 121°46'512.2
2017-Nov-25 06:00N 29°43' W 121°41'612.2
2017-Nov-25 05:30N 29°46' W 121°34'912.5
2017-Nov-25 04:45N 29°50' W 121°25'412.5
2017-Nov-25 04:24N 29°51' W 121°20'512.6
2017-Nov-25 04:00N 29°53' W 121°15'2512.4
2017-Nov-25 02:00N 30°04' W 120°49'812.6
2017-Nov-25 01:23N 30°08' W 120°41'512.6
2017-Nov-25 01:00N 30°10' W 120°36'612.4
2017-Nov-25 00:29N 30°12' W 120°29'612.4
2017-Nov-25 00:00N 30°15' W 120°23'612.6
2017-Nov-24 23:30N 30°17' W 120°16'612.5
2017-Nov-24 23:00N 30°20' W 120°09'612.5
2017-Nov-24 22:30N 30°22' W 120°03'612.2
2017-Nov-24 22:00N 30°25' W 119°57'612.1
2017-Nov-24 21:30N 30°27' W 119°50'712.8
2017-Nov-24 21:00N 30°30' W 119°43'713.9
2017-Nov-24 20:30N 30°33' W 119°36'714.1
2017-Nov-24 20:00N 30°36' W 119°29'713.9
2017-Nov-24 19:30N 30°39' W 119°21'714.0
2017-Nov-24 19:00N 30°42' W 119°14'714.0
2017-Nov-24 18:30N 30°45' W 119°07'713.9
2017-Nov-24 18:00N 30°48' W 118°59'713.9
2017-Nov-24 17:31N 30°51' W 118°52'714.1
2017-Nov-24 17:00N 30°54' W 118°45'914.4
2017-Nov-24 16:24N 30°58' W 118°36'614.4
2017-Nov-24 16:00N 31°00' W 118°30'714.8
2017-Nov-24 15:30N 31°06' W 118°24'714.7
2017-Nov-24 15:00N 31°12' W 118°19'714.5
2017-Nov-24 14:30N 31°18' W 118°14'714.3
2017-Nov-24 14:00N 31°23' W 118°08'714.5
2017-Nov-24 13:30N 31°29' W 118°03'714.1
2017-Nov-24 13:00N 31°34' W 117°58'714.1
2017-Nov-24 12:31N 31°40' W 117°53'714.2
2017-Nov-24 12:00N 31°45' W 117°48'714.1
2017-Nov-24 11:31N 31°51' W 117°42'713.5
2017-Nov-24 11:00N 31°57' W 117°38'714.5
2017-Nov-24 10:30N 32°04' W 117°39'714.3
2017-Nov-24 10:00N 32°11' W 117°40'714.1
2017-Nov-24 09:31N 32°18' W 117°40'713.9
2017-Nov-24 09:00N 32°25' W 117°38'714.5
2017-Nov-24 08:30N 32°32' W 117°38'714.0
2017-Nov-24 08:00N 32°39' W 117°40'714.5
2017-Nov-24 07:31N 32°46' W 117°43'714.6
2017-Nov-24 07:00N 32°52' W 117°47'714.8
2017-Nov-24 06:31N 32°59' W 117°50'714.7
2017-Nov-24 06:00N 33°07' W 117°50'2 3.8
2017-Nov-24 05:30N 33°08' W 117°51'1 1.1
2017-Nov-24 05:00N 33°08' W 117°51'1 1.9
2017-Nov-24 04:30N 33°07' W 117°51'1 1.8
2017-Nov-24 04:00N 33°06' W 117°51'2 3.7
2017-Nov-24 03:30N 33°05' W 117°50'1 1.4
2017-Nov-24 03:00N 33°04' W 117°49'1 1.6
2017-Nov-24 02:30N 33°04' W 117°49'0 0.4
2017-Nov-24 02:00N 33°03' W 117°48'0 0.4
2017-Nov-24 01:30N 33°03' W 117°49'0 0.3
2017-Nov-24 01:00N 33°03' W 117°49'0 0.4
2017-Nov-24 00:30N 33°03' W 117°49'0 0.6
2017-Nov-24 00:00N 33°03' W 117°48'1 1.5
2017-Nov-23 23:30N 33°02' W 117°48'1 1.8
2017-Nov-23 23:00N 33°01' W 117°48'1 1.1
2017-Nov-23 22:30N 33°00' W 117°48'1 1.3
2017-Nov-23 22:00N 32°60' W 117°48'1 1.8
2017-Nov-23 21:30N 32°59' W 117°48'1 1.1
2017-Nov-23 21:00N 32°58' W 117°48'0 0.6
2017-Nov-23 20:30N 32°58' W 117°48'0 0.8
2017-Nov-23 20:00N 32°58' W 117°48'1 1.2
2017-Nov-23 19:30N 32°57' W 117°48'1 1.4
2017-Nov-23 19:00N 32°56' W 117°48'1 1.1
2017-Nov-23 18:30N 32°56' W 117°47'1 1.0
2017-Nov-23 18:00N 32°56' W 117°47'1 1.1
2017-Nov-23 17:30N 32°55' W 117°47'1 1.1
2017-Nov-23 17:00N 32°55' W 117°46'1 1.1
2017-Nov-23 16:30N 32°54' W 117°46'0 0.9
2017-Nov-23 16:00N 32°54' W 117°46'0 0.9
2017-Nov-23 15:30N 32°54' W 117°45'1 1.2
2017-Nov-23 15:00N 32°53' W 117°45'1 1.3
2017-Nov-23 14:30N 32°53' W 117°44'1 1.3
2017-Nov-23 14:00N 32°53' W 117°45'1 1.1
2017-Nov-23 13:30N 32°53' W 117°46'1 1.1
2017-Nov-23 13:00N 32°53' W 117°46'0 0.8
2017-Nov-23 12:30N 32°52' W 117°47'0 0.9
2017-Nov-23 12:00N 32°52' W 117°47'1 1.1
2017-Nov-23 11:30N 32°53' W 117°48'1 1.5
2017-Nov-23 11:00N 32°53' W 117°48'1 1.4
2017-Nov-23 10:30N 32°54' W 117°49'1 1.2
2017-Nov-23 10:01N 32°54' W 117°49'0 0.9
2017-Nov-23 09:30N 32°55' W 117°50'0 0.7
2017-Nov-23 09:00N 32°55' W 117°50'0 0.8
2017-Nov-23 08:30N 32°55' W 117°50'0 0.8
2017-Nov-23 08:00N 32°56' W 117°50'0 0.9
2017-Nov-23 07:30N 32°56' W 117°50'0 0.8
2017-Nov-23 07:00N 32°57' W 117°50'1 1.2
2017-Nov-23 06:30N 32°57' W 117°50'1 2.0
2017-Nov-23 06:00N 32°58' W 117°51'2 3.2
2017-Nov-23 05:30N 32°60' W 117°51'2 4.7
2017-Nov-23 05:00N 33°02' W 117°52'2 4.6
2017-Nov-23 04:30N 33°04' W 117°54'2 4.6
2017-Nov-23 04:00N 33°06' W 117°55'2 4.7
2017-Nov-23 03:30N 33°08' W 117°57'1 2.0
2017-Nov-23 03:00N 33°09' W 117°57'0 0.8
2017-Nov-23 02:30N 33°09' W 117°57'0 0.3
2017-Nov-23 02:00N 33°09' W 117°57'1 2.8
2017-Nov-23 01:30N 33°08' W 117°56'4 7.3
2017-Nov-23 01:00N 33°05' W 117°53'5 9.0
2017-Nov-23 00:30N 33°02' W 117°49'5 9.0
2017-Nov-23 00:00N 32°59' W 117°45'1 2.9
2017-Nov-22 23:30N 32°59' W 117°43'0 0.4
2017-Nov-22 23:00N 32°59' W 117°43'0 0.5
2017-Nov-22 22:30N 32°60' W 117°43'0 0.8
2017-Nov-22 22:00N 32°60' W 117°43'0 0.7
2017-Nov-22 21:30N 33°00' W 117°44'0 0.6
2017-Nov-22 21:00N 33°00' W 117°44'0 0.6
2017-Nov-22 20:30N 33°01' W 117°44'0 0.5
2017-Nov-22 20:00N 33°01' W 117°44'0 0.6
2017-Nov-22 19:30N 33°01' W 117°45'  
2017-Nov-20 00:30N 33°03' W 117°50'0 0.8
2017-Nov-20 00:01N 33°04' W 117°50'0 0.6
2017-Nov-19 23:30N 33°04' W 117°51'0 0.5
2017-Nov-19 23:01N 33°04' W 117°51'0 0.5
2017-Nov-19 22:30N 33°04' W 117°51'0 0.5
2017-Nov-19 22:00N 33°04' W 117°51'0 0.5
2017-Nov-19 21:30N 33°04' W 117°52'0 0.5
2017-Nov-19 21:00N 33°04' W 117°52'0 0.4
2017-Nov-19 20:31N 33°04' W 117°52'0 0.4
2017-Nov-19 20:00N 33°04' W 117°52'0 0.5
2017-Nov-19 19:31N 33°04' W 117°53'0 0.6
2017-Nov-19 19:00N 33°04' W 117°53'0 0.4
2017-Nov-19 18:31N 33°04' W 117°53'0 0.5
2017-Nov-19 18:00N 33°04' W 117°54'0 0.4
2017-Nov-19 17:30N 33°04' W 117°54'0 0.3
2017-Nov-19 17:00N 33°04' W 117°54'0 0.2
2017-Nov-19 16:31N 33°04' W 117°54'0 0.2
2017-Nov-19 16:00N 33°03' W 117°54'0 0.2
2017-Nov-19 15:30N 33°03' W 117°54'0 0.3
2017-Nov-19 15:00N 33°03' W 117°54'0 0.3
2017-Nov-19 14:31N 33°03' W 117°54'0 0.2
2017-Nov-19 14:01N 33°03' W 117°54'0 0.2
2017-Nov-19 13:31N 33°03' W 117°54'0 0.1
2017-Nov-19 13:01N 33°03' W 117°54'0 0.2
2017-Nov-19 12:31N 33°03' W 117°54'0 0.1
2017-Nov-19 12:00N 33°03' W 117°54'0 0.2
2017-Nov-19 11:30N 33°03' W 117°54'0 0.3
2017-Nov-19 11:00N 33°04' W 117°54'0 0.4
2017-Nov-19 10:30N 33°04' W 117°54'0 0.2
2017-Nov-19 10:00N 33°04' W 117°54'0 0.3
2017-Nov-19 09:30N 33°04' W 117°55'0 0.2
2017-Nov-19 09:00N 33°04' W 117°55'0 0.2
2017-Nov-19 08:30N 33°04' W 117°55'0 0.2
2017-Nov-19 08:00N 33°04' W 117°55'0 0.2
2017-Nov-19 07:30N 33°04' W 117°55'0 0.3
2017-Nov-19 07:00N 33°04' W 117°55'0 0.3
2017-Nov-19 06:30N 33°04' W 117°55'0 0.2
2017-Nov-19 06:00N 33°04' W 117°55'0 0.3
2017-Nov-19 05:30N 33°04' W 117°55'0 0.2
2017-Nov-19 05:00N 33°04' W 117°56'0 0.1
2017-Nov-19 04:30N 33°04' W 117°56'0 0.1
2017-Nov-19 04:00N 33°04' W 117°56'0 0.1
2017-Nov-19 03:30N 33°04' W 117°56'0 0.4
2017-Nov-19 03:01N 33°04' W 117°55'1 2.3
2017-Nov-19 02:30N 33°04' W 117°54'2 3.7
2017-Nov-19 02:01N 33°03' W 117°52'1 1.3
2017-Nov-19 01:31N 33°03' W 117°51'0 0.5
2017-Nov-19 01:00N 33°03' W 117°51'0 0.8
2017-Nov-19 00:30N 33°02' W 117°51'1 1.9
2017-Nov-19 00:00N 33°02' W 117°51'1 2.6
2017-Nov-18 23:30N 33°00' W 117°50'1 2.0
2017-Nov-18 23:00N 32°60' W 117°50'0 0.9
2017-Nov-18 22:31N 32°59' W 117°49'0 0.6
2017-Nov-18 21:58N 32°59' W 117°49'0 0.3
2017-Nov-18 21:30N 32°59' W 117°49'0 0.8
2017-Nov-18 21:00N 32°58' W 117°49'1 1.0
2017-Nov-18 20:30N 32°58' W 117°49'0 0.7
2017-Nov-18 20:00N 32°58' W 117°48'0 0.6
2017-Nov-18 19:30N 32°57' W 117°48'0 0.7
2017-Nov-18 19:00N 32°57' W 117°48'0 0.9
2017-Nov-18 18:30N 32°57' W 117°48'1 1.2
2017-Nov-18 18:00N 32°56' W 117°48'1 1.1
2017-Nov-18 17:30N 32°55' W 117°48'0 0.6
2017-Nov-18 16:56N 32°55' W 117°48'0 0.7
2017-Nov-18 16:31N 32°55' W 117°48'0 0.6
2017-Nov-18 16:00N 32°56' W 117°48'0 0.6
2017-Nov-18 15:30N 32°56' W 117°48'0 0.5
2017-Nov-18 15:00N 32°56' W 117°48'0 0.6
2017-Nov-18 14:30N 32°56' W 117°49'1 1.3
2017-Nov-18 14:00N 32°57' W 117°49'1 1.2
2017-Nov-18 13:30N 32°57' W 117°49'1 1.1
2017-Nov-18 13:01N 32°58' W 117°49'1 1.1
2017-Nov-18 12:30N 32°58' W 117°50'0 0.8
2017-Nov-18 12:00N 32°59' W 117°50'0 0.8
2017-Nov-18 11:31N 32°59' W 117°50'0 0.9
2017-Nov-18 11:01N 32°60' W 117°50'0 0.8
2017-Nov-18 10:30N 33°00' W 117°50'0 0.8
2017-Nov-18 09:59N 33°01' W 117°50'0 0.8
2017-Nov-18 09:31N 33°01' W 117°50'0 0.7
2017-Nov-18 09:00N 33°01' W 117°51'1 1.4
2017-Nov-18 08:31N 33°02' W 117°51'1 2.9
2017-Nov-18 08:01N 33°03' W 117°52'2 3.9
2017-Nov-18 07:31N 33°05' W 117°53'2 4.3
2017-Nov-18 07:01N 33°06' W 117°55'2 4.6
2017-Nov-18 06:30N 33°08' W 117°56'1 2.3
2017-Nov-18 06:01N 33°09' W 117°57'2 3.9
2017-Nov-18 05:31N 33°09' W 117°54'0 0.5
2017-Nov-18 05:00N 33°09' W 117°55'0 0.2
2017-Nov-18 04:27N 33°09' W 117°55'0 0.3
2017-Nov-18 04:00N 33°09' W 117°55'0 0.2
2017-Nov-18 03:30N 33°09' W 117°55'0 0.3
2017-Nov-18 03:00N 33°09' W 117°55'2 5.0
2017-Nov-18 02:30N 33°06' W 117°54'510.3
2017-Nov-18 02:00N 33°01' W 117°53'611.1
2017-Nov-18 01:30N 32°56' W 117°51'611.0
2017-Nov-18 01:00N 32°50' W 117°50'611.1
2017-Nov-18 00:30N 32°45' W 117°48'511.0
2017-Nov-18 00:01N 32°40' W 117°47'510.8
2017-Nov-17 23:30N 32°34' W 117°46'611.1
2017-Nov-17 23:00N 32°29' W 117°45'611.0
2017-Nov-17 22:30N 32°23' W 117°45'611.0
2017-Nov-17 21:56N 32°17' W 117°44'511.0
2017-Nov-17 21:27N 32°12' W 117°43'510.3
2017-Nov-17 21:00N 32°07' W 117°42'3 5.1
2017-Nov-17 20:30N 32°05' W 117°42'1 0.4
2017-Nov-17 18:21N 32°05' W 117°43'0 0.6
2017-Nov-17 18:00N 32°05' W 117°43'0 0.4
2017-Nov-17 17:30N 32°05' W 117°44'1 0.6
2017-Nov-17 16:02N 32°04' W 117°45'0 0.2
2017-Nov-17 16:00N 32°04' W 117°45'1 0.7
2017-Nov-17 14:16N 32°04' W 117°46'0 0.9
2017-Nov-17 14:00N 32°04' W 117°46'0 0.5
2017-Nov-17 13:31N 32°04' W 117°46'0 0.6
2017-Nov-17 13:00N 32°04' W 117°47'0 0.6
2017-Nov-17 12:31N 32°03' W 117°47'0 0.5
2017-Nov-17 12:01N 32°03' W 117°47'0 0.5
2017-Nov-17 11:30N 32°03' W 117°47'0 0.4
2017-Nov-17 11:01N 32°03' W 117°47'0 0.5
2017-Nov-17 10:30N 32°03' W 117°48'0 0.5
2017-Nov-17 10:00N 32°03' W 117°48'0 0.5
2017-Nov-17 09:13N 32°02' W 117°48'0 0.6
2017-Nov-17 09:00N 32°02' W 117°48'0 0.4
2017-Nov-17 08:30N 32°02' W 117°49'0 0.4
2017-Nov-17 08:01N 32°02' W 117°49'0 0.4
2017-Nov-17 07:30N 32°02' W 117°49'0 0.5
2017-Nov-17 07:01N 32°02' W 117°49'0 0.5
2017-Nov-17 06:30N 32°02' W 117°50'0 0.5
2017-Nov-17 06:00N 32°02' W 117°50'0 0.5
2017-Nov-17 05:30N 32°02' W 117°50'0 0.5
2017-Nov-17 05:01N 32°02' W 117°50'0 0.6
2017-Nov-17 04:31N 32°02' W 117°51'0 0.6
2017-Nov-17 03:58N 32°01' W 117°51'0 0.7
2017-Nov-17 03:31N 32°02' W 117°52'0 0.8
2017-Nov-17 03:01N 32°02' W 117°52'0 0.8
2017-Nov-17 02:31N 32°02' W 117°53'0 0.9
2017-Nov-17 02:01N 32°01' W 117°53'0 0.9
2017-Nov-17 01:31N 32°01' W 117°54'0 0.9
2017-Nov-17 01:00N 32°01' W 117°54'0 1.0
2017-Nov-17 00:31N 32°01' W 117°55'0 1.0
2017-Nov-17 00:00N 32°01' W 117°55'1 1.0
2017-Nov-16 23:30N 32°01' W 117°56'0 0.7
2017-Nov-16 23:01N 32°01' W 117°56'0 0.6
2017-Nov-16 22:31N 32°01' W 117°57'0 0.7
2017-Nov-16 22:00N 32°01' W 117°57'0 0.6
2017-Nov-16 21:30N 32°00' W 117°57'0 0.4
2017-Nov-16 21:00N 32°00' W 117°57'0 0.4
2017-Nov-16 20:30N 32°00' W 117°57'3 5.0
2017-Nov-16 20:01N 31°59' W 117°60'611.6
2017-Nov-16 19:31N 31°54' W 118°04'611.6
2017-Nov-16 19:00N 31°50' W 118°09'611.3
2017-Nov-16 18:31N 31°45' W 118°11'611.3
2017-Nov-16 18:01N 31°39' W 118°14'611.3
2017-Nov-16 17:31N 31°34' W 118°16'611.2
2017-Nov-16 17:00N 31°29' W 118°19'611.2
2017-Nov-16 16:31N 31°24' W 118°21'511.0
2017-Nov-16 16:00N 31°19' W 118°23'610.9
2017-Nov-16 15:30N 31°14' W 118°26'510.9
2017-Nov-16 15:00N 31°09' W 118°28'5 9.8
2017-Nov-16 14:30N 31°05' W 118°32'510.9
2017-Nov-16 14:00N 31°03' W 118°38'510.8
2017-Nov-16 13:30N 31°02' W 118°44'510.8
2017-Nov-16 13:00N 31°01' W 118°50'610.7
2017-Nov-16 12:28N 30°59' W 118°57'610.9
2017-Nov-16 11:58N 30°58' W 119°03'511.1
2017-Nov-16 11:31N 30°56' W 119°09'1911.1
2017-Nov-16 09:49N 30°51' W 119°30'311.1
2017-Nov-16 09:31N 30°51' W 119°34'611.2
2017-Nov-16 09:00N 30°49' W 119°40'611.4
2017-Nov-16 08:31N 30°48' W 119°46'611.4
2017-Nov-16 08:01N 30°46' W 119°53'611.5
2017-Nov-16 07:30N 30°45' W 119°59'711.6
2017-Nov-16 06:55N 30°43' W 120°07'511.5
2017-Nov-16 06:31N 30°42' W 120°12'611.4
2017-Nov-16 06:01N 30°40' W 120°19'611.2
2017-Nov-16 05:31N 30°39' W 120°25'611.1
2017-Nov-16 05:01N 30°38' W 120°31'611.2
2017-Nov-16 04:31N 30°36' W 120°38'611.2
2017-Nov-16 04:00N 30°35' W 120°44'611.4
2017-Nov-16 03:30N 30°33' W 120°50'1211.2
2017-Nov-16 02:24N 30°30' W 121°04'511.1
2017-Nov-16 01:58N 30°29' W 121°10'510.9
2017-Nov-16 01:30N 30°28' W 121°15'911.2
2017-Nov-16 00:44N 30°26' W 121°25'811.4
2017-Nov-16 00:04N 30°24' W 121°33'111.5
2017-Nov-16 00:00N 30°24' W 121°34'611.2
2017-Nov-15 23:31N 30°22' W 121°40'610.9
2017-Nov-15 23:00N 30°21' W 121°47'510.4
2017-Nov-15 22:30N 30°21' W 121°53'611.0
2017-Nov-15 22:00N 30°22' W 121°59'611.1
2017-Nov-15 21:30N 30°24' W 122°05'611.0
2017-Nov-15 20:59N 30°26' W 122°11'611.2
2017-Nov-15 20:30N 30°27' W 122°17'1011.0
2017-Nov-15 19:33N 30°30' W 122°29'211.4
2017-Nov-15 19:23N 30°31' W 122°31'411.3
2017-Nov-15 19:00N 30°32' W 122°36'611.3
2017-Nov-15 18:30N 30°34' W 122°42'611.2
2017-Nov-15 18:00N 30°35' W 122°48'611.4
2017-Nov-15 17:30N 30°37' W 122°55'611.5
2017-Nov-15 17:00N 30°39' W 123°01'611.4
2017-Nov-15 16:30N 30°40' W 123°07'611.3
2017-Nov-15 16:00N 30°42' W 123°14'611.2
2017-Nov-15 15:30N 30°44' W 123°20'1611.1
2017-Nov-15 14:06N 30°48' W 123°37'110.8
2017-Nov-15 14:00N 30°49' W 123°38'1511.0
2017-Nov-15 12:39N 30°53' W 123°55'310.8
2017-Nov-15 12:21N 30°54' W 123°58'  

Dump ship's entire track history